Terminal Aerodrome Forecast
Issued by NWS

Current Version | Previous Version | Text Only | Print | Product List | Glossary Off
Versions: 1 2 3 4 5 6 7 8 9 10 11 12 13 14 15 16 17 18 19 20 21 22 23 24

000
FTUS41 KILN 081100
TAFLUK
TAF
KLUK 081120Z 0812/0912 21009KT P6SM BKN080
      TEMPO 0812/0814 20012G20KT 4SM -TSRA BR OVC025CB
     FM081400 23010G22KT P6SM SCT035 BKN200
     FM082000 24012G23KT P6SM VCTS BKN035CB
     FM090000 26005KT P6SM BKN040
     FM090600 28005KT P6SM SCT040
      TEMPO 0909/0912 1SM BR SCT004=

USA.gov is the U.S. government's official web portal to all federal, state and local government web resources and services.